Historyczne dane pomiarowe

Dodano dane terminowe – wersja testowa.

Dane z okresu 1951-2018

Wersja bazy: 1.27 [2018-11-28, lista zmian], aktualizacja planowana na 2018-12-07

Dane meteo z obszaru Polski uzyskane na podstawie danych udostępnionych przez Instytut Meteorologii i Gospodarki Wodnej – Państwowy Instytut Badawczy.

 

Wybierz Datę:    

       

TemperaturaWilgotnośćWiatrCiśnienieOpadyŚniegCzas trwania zjawisk
 Stacja t tx tn tng RH VA  wxwx mslp ppp RRR   cm mm wxwxwxwxwxwxwx
1978-11-08 4.1 7.4 1.2- 94.3- 2.7 1.7---- 0.0------------
1978-11-09 1.0 5.6 -2.0- 94.8- 4.7 0.0---- 0.0------------
1978-11-10 0.6 6.0 -2.2- 95.5- 2.7 0.0---- 0.0------------
1978-11-11 -0.9 4.4 -4.1- 93.0- 0.0 0.3---- 0.0------------
1978-11-12 -0.8 3.0 -2.7- 92.8- 2.7 0.3---- 0.0------------
1978-11-13 -1.7 4.8 -5.5- 88.3- 0.0 0.0---- 0.0------------
1978-11-14 -1.8 2.4 -5.2- 92.5- 5.0 0.0---- 0.0------------
1978-11-15 0.9 3.7 -0.9- 83.3- 3.3 3.3---- 0.0------------
1978-11-16 1.1 5.3 -1.8- 83.0- 2.7 1.7---- 0.0------------
1978-11-17 2.8 8.0 0.7- 86.0- 0.0 1.0---- 0.0------------
1978-11-18 2.0 3.2 0.3- 87.8- 3.3 1.3---- 0.0------------
1978-11-19 1.3 3.7 0.1- 83.0- 3.3 8.3---- 0.0------------
1978-11-20 1.8 6.0 -0.9- 81.5- 2.7 1.7---- 0.0------------
1978-11-21 2.3 7.0 -0.7- 88.8- 5.3 0.0---- 0.0------------
1978-11-22 2.4 5.2 -2.5- 87.8- 6.7 2.0---- 0.0------------
1978-11-23 5.1 6.9 2.9- 86.8- 8.0 4.7---- 0.0------------
1978-11-24 4.7 6.5 3.3- 89.0- 7.7 4.7---- 0.0------------
1978-11-25 3.3 6.0 0.6- 87.8- 0.0 7.7---- 0.0------------
1978-11-26 -0.4 3.4 -2.6- 96.3- 4.0 0.7---- 0.0------------
1978-11-27 0.0 6.5 -3.5- 93.0- 6.3 0.0---- 6.4------------
1978-11-28 -0.4 2.4 -0.9- 94.5- 8.0 0.3---- 4.6-- 5---------
1978-11-29 -0.9 0.8 -2.6- 90.5- 6.7 3.7---- 1.0-- 10---------
1978-11-30 -2.0 0.6 -6.3- 97.3- 8.0 1.0---- 10.2-- 12---------
1978-12-01 0.7 1.5 0.0-100.0- 8.0 0.0---- 0.4-- 16---------
1978-12-02 0.2 1.8 -0.6- 99.3- 8.0 0.7---- 0.9-- 13---------
1978-12-03 -2.5 0.9 -4.8- 83.5- 8.0 0.7---- 0.0-- 13---------
1978-12-04-11.5 -3.3-15.0- 85.0- 4.7 0.0---- 0.6-- 12---------
1978-12-05-13.6 -9.1-19.7- 88.0- 8.0 2.7---- 0.4-- 9---------
1978-12-06-10.4 -7.9-13.8- 87.8- 5.0 1.0---- 0.3-- 7---------
1978-12-07-17.7-10.7-23.2- 89.8- 4.7 0.0---- 0.0-- 7---------
183.0 ms

 

Źródłem pochodzenia danych jest Instytut Meteorologii i Gospodarki Wodnej – Państwowy Instytut Badawczy. Dane Instytutu Meteorologii i Gospodarki Wodnej – Państwowego Instytutu Badawczego zostały przetworzone.

Dane źródłowe można odnaleźć na stronie https://dane.imgw.pl